createdAt,value
2023-03-14T00:00:50.587Z,82.55
2023-03-14T00:03:17.300Z,82.54
2023-03-14T00:05:43.966Z,82.20
2023-03-14T00:08:10.607Z,82.08
2023-03-14T00:10:39.094Z,82.30
2023-03-14T00:13:06.007Z,82.34
2023-03-14T00:15:33.393Z,82.38
2023-03-14T00:18:00.051Z,82.04
2023-03-14T00:20:27.028Z,82.37
2023-03-14T00:22:53.773Z,82.14
2023-03-14T00:25:20.435Z,81.70
2023-03-14T00:27:51.430Z,81.65
2023-03-14T00:30:18.454Z,81.95
2023-03-14T00:32:45.100Z,81.97
2023-03-14T00:35:11.705Z,82.07
2023-03-14T00:37:38.354Z,82.34
2023-03-14T00:40:06.204Z,82.10
2023-03-14T00:42:33.031Z,81.89
2023-03-14T00:45:01.130Z,81.59
2023-03-14T00:47:27.824Z,82.01
2023-03-14T00:49:54.478Z,82.18
2023-03-14T00:52:21.170Z,82.02
2023-03-14T00:54:47.813Z,82.25
2023-03-14T00:57:14.417Z,82.41
2023-03-14T00:59:41.150Z,82.44
2023-03-14T01:02:09.275Z,82.53
2023-03-14T01:04:35.931Z,82.66
2023-03-14T01:07:02.742Z,82.95
2023-03-14T01:09:29.414Z,82.88
2023-03-14T01:11:56.065Z,82.66
2023-03-14T01:14:22.756Z,82.96
2023-03-14T01:16:49.351Z,82.91
2023-03-14T01:19:17.427Z,82.99
2023-03-14T01:21:43.978Z,83.21
2023-03-14T01:24:12.696Z,83.31
2023-03-14T01:26:39.383Z,83.82
2023-03-14T01:29:06.083Z,83.91
2023-03-14T01:31:32.771Z,83.82
2023-03-14T01:33:59.409Z,83.96
2023-03-14T01:36:27.679Z,84.09
2023-03-14T01:38:55.046Z,83.99
2023-03-14T01:41:24.373Z,84.00
2023-03-14T01:43:51.499Z,83.89
2023-03-14T01:46:26.322Z,83.80
2023-03-14T01:49:02.350Z,83.99
2023-03-14T01:51:37.096Z,83.74
2023-03-14T01:54:09.532Z,83.71
2023-03-14T01:56:37.392Z,83.67
2023-03-14T01:59:07.432Z,83.66
2023-03-14T02:01:35.562Z,83.78
2023-03-14T02:04:06.519Z,83.89
2023-03-14T02:06:42.250Z,84.00
2023-03-14T02:09:09.020Z,84.33
2023-03-14T02:11:35.819Z,84.14
2023-03-14T02:14:03.369Z,84.12
2023-03-14T02:16:31.544Z,83.85
2023-03-14T02:18:58.298Z,84.03
2023-03-14T02:21:32.835Z,84.02
2023-03-14T02:24:10.448Z,83.92
2023-03-14T02:26:40.842Z,83.96
2023-03-14T02:29:08.975Z,83.89
2023-03-14T02:31:36.363Z,84.00
2023-03-14T02:34:04.383Z,84.03
2023-03-14T02:36:31.261Z,84.03
2023-03-14T02:39:07.174Z,83.81
2023-03-14T02:41:33.792Z,83.83
2023-03-14T02:44:00.399Z,83.78
2023-03-14T02:46:28.721Z,84.00
2023-03-14T02:48:59.227Z,83.49
2023-03-14T02:51:26.911Z,83.42
2023-03-14T02:53:53.821Z,83.21
2023-03-14T02:56:20.405Z,83.25
2023-03-14T02:58:47.211Z,83.21
2023-03-14T03:01:13.945Z,82.91
2023-03-14T03:03:42.072Z,83.18
2023-03-14T03:06:08.833Z,83.26
2023-03-14T03:08:35.618Z,83.26
2023-03-14T03:11:02.271Z,83.29
2023-03-14T03:13:28.907Z,83.18
2023-03-14T03:15:55.536Z,83.07
2023-03-14T03:18:22.377Z,83.11
2023-03-14T03:20:50.374Z,82.87
2023-03-14T03:23:17.113Z,82.87
2023-03-14T03:25:49.326Z,83.00
2023-03-14T03:28:16.164Z,82.95
2023-03-14T03:30:43.074Z,82.82
2023-03-14T03:33:10.440Z,82.80
2023-03-14T03:35:44.084Z,82.47
2023-03-14T03:38:12.222Z,82.56
2023-03-14T03:40:39.059Z,82.68
2023-03-14T03:43:05.786Z,82.73
2023-03-14T03:45:32.466Z,82.29
2023-03-14T03:47:59.136Z,82.25
2023-03-14T03:50:25.929Z,82.15
2023-03-14T03:52:52.628Z,82.16
2023-03-14T03:55:20.651Z,81.80
2023-03-14T03:57:47.339Z,81.73
2023-03-14T04:00:14.495Z,81.53
2023-03-14T04:02:41.313Z,81.63
2023-03-14T04:05:09.026Z,81.54
2023-03-14T04:07:35.751Z,81.26
2023-03-14T04:10:02.419Z,81.06
2023-03-14T04:12:30.470Z,81.20
2023-03-14T04:14:57.133Z,80.82
2023-03-14T04:17:23.697Z,80.92
2023-03-14T04:19:50.636Z,80.96
2023-03-14T04:22:17.223Z,80.83
2023-03-14T04:24:43.783Z,81.04
2023-03-14T04:27:10.428Z,80.69
2023-03-14T04:29:38.546Z,80.94
2023-03-14T04:32:05.626Z,80.87
2023-03-14T04:34:32.304Z,80.67
2023-03-14T04:36:58.917Z,80.71
2023-03-14T04:39:25.566Z,80.68
2023-03-14T04:41:52.149Z,80.41
2023-03-14T04:44:18.739Z,80.38
2023-03-14T04:46:46.858Z,80.26
2023-03-14T04:49:13.500Z,80.30
2023-03-14T04:51:40.204Z,80.36
2023-03-14T04:54:06.802Z,80.02
2023-03-14T04:56:33.572Z,80.10
2023-03-14T04:59:00.221Z,80.12
2023-03-14T05:01:26.902Z,79.80
2023-03-14T05:03:55.344Z,79.81
2023-03-14T05:06:22.207Z,79.86
2023-03-14T05:08:48.753Z,79.77
2023-03-14T05:11:15.328Z,79.65
2023-03-14T05:13:42.023Z,79.97
2023-03-14T05:16:10.773Z,79.92
2023-03-14T05:18:37.655Z,79.34
2023-03-14T05:21:06.426Z,79.83
2023-03-14T05:23:33.101Z,79.86
2023-03-14T05:25:59.973Z,79.66
2023-03-14T05:28:26.729Z,79.88
2023-03-14T05:30:53.693Z,79.77
2023-03-14T05:33:20.377Z,79.47
2023-03-14T05:35:47.369Z,79.64
2023-03-14T05:38:15.812Z,80.06
2023-03-14T05:40:42.419Z,79.37
2023-03-14T05:43:09.633Z,79.38
2023-03-14T05:45:36.485Z,79.28
2023-03-14T05:48:03.260Z,79.34
2023-03-14T05:50:29.840Z,79.17
2023-03-14T05:52:56.606Z,79.13
2023-03-14T05:55:24.721Z,78.64
2023-03-14T05:57:51.422Z,78.76
2023-03-14T06:00:19.008Z,78.54
2023-03-14T06:02:45.730Z,78.52
2023-03-14T06:05:12.703Z,78.73
2023-03-14T06:07:39.625Z,78.07
2023-03-14T06:10:07.476Z,78.26
2023-03-14T06:12:35.701Z,78.03
2023-03-14T06:15:02.480Z,77.77
2023-03-14T06:17:29.225Z,77.78
2023-03-14T06:19:56.235Z,77.57
2023-03-14T06:22:22.931Z,77.47
2023-03-14T06:24:49.599Z,77.45
2023-03-14T06:27:16.385Z,77.23
2023-03-14T06:29:45.392Z,77.16
2023-03-14T06:32:12.184Z,77.13
2023-03-14T06:34:38.922Z,76.80
2023-03-14T06:37:05.661Z,76.61
2023-03-14T06:39:32.405Z,76.59
2023-03-14T06:41:59.069Z,76.92
2023-03-14T06:44:25.744Z,76.40
2023-03-14T06:46:54.561Z,76.26
2023-03-14T06:49:21.260Z,75.80
2023-03-14T06:51:48.007Z,75.82
2023-03-14T06:54:14.618Z,75.54
2023-03-14T06:56:41.450Z,75.27
2023-03-14T06:59:08.226Z,75.30
2023-03-14T07:01:35.136Z,75.12
2023-03-14T07:04:03.919Z,74.73
2023-03-14T07:06:30.538Z,74.52
2023-03-14T07:08:57.869Z,73.99
2023-03-14T07:11:24.911Z,73.99
2023-03-14T07:13:51.620Z,73.98
2023-03-14T07:16:18.283Z,73.79
2023-03-14T07:18:45.127Z,73.85
2023-03-14T07:21:13.362Z,73.89
2023-03-14T07:23:40.430Z,74.39
2023-03-14T07:26:07.657Z,74.21
2023-03-14T07:28:34.334Z,73.73
2023-03-14T07:31:01.099Z,73.97
2023-03-14T07:33:27.788Z,73.28
2023-03-14T07:35:54.653Z,73.38
2023-03-14T07:38:23.232Z,72.58
2023-03-14T07:40:50.322Z,72.14
2023-03-14T07:43:17.337Z,71.87
2023-03-14T07:45:50.725Z,71.47
2023-03-14T07:48:18.009Z,71.04
2023-03-14T07:50:44.676Z,71.33
2023-03-14T07:53:11.245Z,70.92
2023-03-14T07:55:40.819Z,71.37
2023-03-14T07:58:07.616Z,69.91
2023-03-14T08:00:34.739Z,69.75
2023-03-14T08:03:02.681Z,69.54
2023-03-14T08:05:29.432Z,69.51
2023-03-14T08:07:56.745Z,69.48
2023-03-14T08:10:23.580Z,68.96
2023-03-14T08:12:52.393Z,69.64
2023-03-14T08:15:19.194Z,70.03
2023-03-14T08:17:46.263Z,69.90
2023-03-14T08:20:13.342Z,70.73
2023-03-14T08:22:40.224Z,70.18
2023-03-14T08:25:07.787Z,70.52
2023-03-14T08:27:35.282Z,70.70
2023-03-14T08:30:04.156Z,71.00
2023-03-14T08:32:31.091Z,71.03
2023-03-14T08:34:57.978Z,70.91
2023-03-14T08:37:27.148Z,70.96
2023-03-14T08:39:54.865Z,71.12
2023-03-14T08:42:21.868Z,70.92
2023-03-14T08:44:48.624Z,71.25
2023-03-14T08:47:16.811Z,69.58
2023-03-14T08:49:44.071Z,70.31
2023-03-14T08:52:11.170Z,69.52
2023-03-14T08:54:37.947Z,69.23
2023-03-14T08:57:04.759Z,68.96
2023-03-14T08:59:31.454Z,67.66
2023-03-14T09:01:58.098Z,67.22
2023-03-14T09:04:27.047Z,67.81
2023-03-14T09:06:54.471Z,66.98
2023-03-14T09:09:21.750Z,67.25
2023-03-14T09:11:49.395Z,66.27
2023-03-14T09:14:16.910Z,66.91
2023-03-14T09:16:44.192Z,65.50
2023-03-14T09:19:11.110Z,65.60
2023-03-14T09:21:39.359Z,65.45
2023-03-14T09:24:06.727Z,65.04
2023-03-14T09:26:33.510Z,64.11
2023-03-14T09:29:00.198Z,63.45
2023-03-14T09:31:27.136Z,61.87
2023-03-14T09:33:53.880Z,61.61
2023-03-14T09:36:20.679Z,61.98
2023-03-14T09:38:48.922Z,61.96
2023-03-14T09:41:18.987Z,61.27
2023-03-14T09:43:47.890Z,61.15
2023-03-14T09:46:16.065Z,61.73
2023-03-14T09:48:43.526Z,61.64
2023-03-14T09:51:18.900Z,59.52
2023-03-14T09:53:48.435Z,60.22
2023-03-14T09:56:19.188Z,60.63
2023-03-14T09:58:51.292Z,60.71
2023-03-14T10:01:23.286Z,60.72
2023-03-14T10:03:51.994Z,60.57
2023-03-14T10:06:18.771Z,60.09
2023-03-14T10:08:46.345Z,60.05
2023-03-14T10:11:17.349Z,60.44
2023-03-14T10:14:02.658Z,59.85
2023-03-14T10:16:31.067Z,59.79
2023-03-14T10:19:03.557Z,59.91
2023-03-14T10:21:31.808Z,60.54
2023-03-14T10:24:09.904Z,60.90
2023-03-14T10:26:38.118Z,60.39
2023-03-14T10:29:11.416Z,60.21
2023-03-14T10:31:49.233Z,60.51
2023-03-14T10:34:18.661Z,59.47
2023-03-14T10:36:45.630Z,60.40
2023-03-14T10:39:38.359Z,60.41
2023-03-14T10:42:15.608Z,61.22
2023-03-14T10:44:42.919Z,61.90
2023-03-14T10:47:18.662Z,62.33
2023-03-14T10:49:45.457Z,62.06
2023-03-14T10:52:18.982Z,61.78
2023-03-14T10:54:48.429Z,62.11
2023-03-14T10:57:16.595Z,62.75
2023-03-14T10:59:44.768Z,62.82
2023-03-14T11:02:35.821Z,63.47
2023-03-14T11:05:13.582Z,62.66
2023-03-14T11:07:41.943Z,61.71
2023-03-14T11:10:24.029Z,61.37
2023-03-14T11:13:09.902Z,61.91
2023-03-14T11:15:41.728Z,61.85
2023-03-14T11:18:26.581Z,62.03
2023-03-14T11:20:57.150Z,61.94
2023-03-14T11:23:28.753Z,62.24
2023-03-14T11:26:00.984Z,61.90
2023-03-14T11:28:36.758Z,61.52
2023-03-14T11:31:12.715Z,62.15
2023-03-14T11:33:46.169Z,62.79
2023-03-14T11:36:16.126Z,62.12
2023-03-14T11:38:47.640Z,62.58
2023-03-14T11:41:18.855Z,62.61
2023-03-14T11:43:49.570Z,63.20
2023-03-14T11:46:22.673Z,62.68
2023-03-14T11:49:00.338Z,64.44
2023-03-14T11:51:34.120Z,66.29
2023-03-14T11:54:09.180Z,65.55
2023-03-14T11:56:40.846Z,65.86
2023-03-14T11:59:16.771Z,65.60
2023-03-14T12:01:55.549Z,65.57
2023-03-14T12:04:35.992Z,65.42
2023-03-14T12:07:08.835Z,65.97
2023-03-14T12:09:36.613Z,65.71
2023-03-14T12:12:06.115Z,65.47
2023-03-14T12:14:36.342Z,65.88
2023-03-14T12:17:07.218Z,64.88
2023-03-14T12:19:37.303Z,64.46
2023-03-14T12:22:18.393Z,65.19
2023-03-14T12:24:48.774Z,65.78
2023-03-14T12:27:48.510Z,63.21
2023-03-14T12:30:26.059Z,62.48
2023-03-14T12:33:28.286Z,61.97
2023-03-14T12:36:03.435Z,64.07
2023-03-14T12:38:48.864Z,66.32
2023-03-14T12:41:19.032Z,65.91
2023-03-14T12:43:47.906Z,66.31
2023-03-14T12:46:23.460Z,66.56
2023-03-14T12:48:54.691Z,67.58
2023-03-14T12:51:29.318Z,68.75
2023-03-14T12:54:12.702Z,67.61
2023-03-14T12:57:04.278Z,67.33
2023-03-14T12:59:34.694Z,68.69
2023-03-14T13:02:15.307Z,67.12
2023-03-14T13:04:46.609Z,66.20
2023-03-14T13:07:14.807Z,65.44
2023-03-14T13:10:17.105Z,65.63
2023-03-14T13:12:48.653Z,65.26
2023-03-14T13:15:22.315Z,64.13
2023-03-14T13:17:51.203Z,62.96
2023-03-14T13:20:23.962Z,63.40
2023-03-14T13:22:51.339Z,62.94
2023-03-14T13:25:18.518Z,62.20
2023-03-14T13:27:45.394Z,62.46
2023-03-14T13:30:20.363Z,61.03
2023-03-14T13:32:49.051Z,62.22
2023-03-14T13:35:18.445Z,62.16
2023-03-14T13:37:45.085Z,61.93
2023-03-14T13:40:21.928Z,61.95
2023-03-14T13:42:48.904Z,62.37
2023-03-14T13:45:20.166Z,61.59
2023-03-14T13:47:47.149Z,62.35
2023-03-14T13:50:17.391Z,60.86
2023-03-14T13:52:44.297Z,59.90
2023-03-14T13:55:16.417Z,59.91
2023-03-14T13:57:47.997Z,58.96
2023-03-14T14:00:21.643Z,59.06
2023-03-14T14:02:49.097Z,59.08
2023-03-14T14:05:16.767Z,59.20
2023-03-14T14:07:44.886Z,58.96
2023-03-14T14:10:13.643Z,59.70
2023-03-14T14:12:46.416Z,61.77
2023-03-14T14:15:16.500Z,60.49
2023-03-14T14:17:48.915Z,60.79
2023-03-14T14:20:23.201Z,62.29
2023-03-14T14:22:50.552Z,64.80
2023-03-14T14:25:17.632Z,66.38
2023-03-14T14:27:47.480Z,68.62
2023-03-14T14:30:33.371Z,68.59
2023-03-14T14:33:19.519Z,70.36
2023-03-14T14:35:54.206Z,71.97
2023-03-14T14:38:21.496Z,72.18
2023-03-14T14:40:50.588Z,73.20
2023-03-14T14:43:19.940Z,72.56
2023-03-14T14:45:50.043Z,72.64
2023-03-14T14:48:21.324Z,73.36
2023-03-14T14:50:56.936Z,73.88
2023-03-14T14:53:27.295Z,74.05
2023-03-14T14:55:56.062Z,69.72
2023-03-14T14:58:25.839Z,67.33
2023-03-14T15:00:57.121Z,69.22
2023-03-14T15:03:28.776Z,70.51
2023-03-14T15:05:55.468Z,70.87
2023-03-14T15:08:22.281Z,71.67
2023-03-14T15:10:49.101Z,71.89
2023-03-14T15:13:15.804Z,72.55
2023-03-14T15:15:42.985Z,73.32
2023-03-14T15:18:14.228Z,73.95
2023-03-14T15:20:42.353Z,73.69
2023-03-14T15:23:12.481Z,74.15
2023-03-14T15:25:54.590Z,74.38
2023-03-14T15:28:23.879Z,74.87
2023-03-14T15:30:52.968Z,74.17
2023-03-14T15:33:20.025Z,74.40
2023-03-14T15:35:48.928Z,73.62
2023-03-14T15:38:17.557Z,74.02
2023-03-14T15:40:44.196Z,73.90
2023-03-14T15:43:10.749Z,75.04
2023-03-14T15:45:37.406Z,75.26
2023-03-14T15:48:04.405Z,75.00
2023-03-14T15:50:31.341Z,74.67
2023-03-14T15:52:59.319Z,74.64
2023-03-14T15:55:26.017Z,74.34
2023-03-14T15:57:52.841Z,74.77
2023-03-14T16:00:21.014Z,75.06
2023-03-14T16:02:47.693Z,74.63
2023-03-14T16:05:14.574Z,74.83
2023-03-14T16:07:41.526Z,75.18
2023-03-14T16:10:11.835Z,75.19
2023-03-14T16:12:38.869Z,75.06
2023-03-14T16:15:06.711Z,74.90
2023-03-14T16:17:33.457Z,75.67
2023-03-14T16:20:00.216Z,76.08
2023-03-14T16:22:26.894Z,76.53
2023-03-14T16:24:53.591Z,76.77
2023-03-14T16:27:21.573Z,76.92
2023-03-14T16:29:48.293Z,77.03
2023-03-14T16:32:14.987Z,77.75
2023-03-14T16:34:41.664Z,77.69
2023-03-14T16:37:08.216Z,77.92
2023-03-14T16:39:44.005Z,78.26
2023-03-14T16:42:18.010Z,78.95
2023-03-14T16:44:45.930Z,79.25
2023-03-14T16:47:12.591Z,79.52
2023-03-14T16:49:39.168Z,79.91
2023-03-14T16:52:07.147Z,79.98
2023-03-14T16:54:34.182Z,80.27
2023-03-14T16:57:00.951Z,80.07
2023-03-14T16:59:27.682Z,80.19
2023-03-14T17:01:56.524Z,80.83
2023-03-14T17:04:23.688Z,80.85
2023-03-14T17:06:50.455Z,80.68
2023-03-14T17:09:17.052Z,81.28
2023-03-14T17:11:43.681Z,81.28
2023-03-14T17:14:10.371Z,81.85
2023-03-14T17:16:37.078Z,82.03
2023-03-14T17:19:05.141Z,81.98
2023-03-14T17:21:31.767Z,81.94
2023-03-14T17:23:58.334Z,82.33
2023-03-14T17:26:24.898Z,82.58
2023-03-14T17:28:51.524Z,82.53
2023-03-14T17:31:19.518Z,82.54
2023-03-14T17:33:46.529Z,82.76
2023-03-14T17:36:14.623Z,82.84
2023-03-14T17:38:41.535Z,82.98
2023-03-14T17:41:09.959Z,83.24
2023-03-14T17:43:36.983Z,83.27
2023-03-14T17:46:05.887Z,83.47
2023-03-14T17:48:32.567Z,83.54
2023-03-14T17:51:02.072Z,83.28
2023-03-14T17:53:30.622Z,83.78
2023-03-14T17:55:57.882Z,83.87
2023-03-14T17:58:24.964Z,83.61
2023-03-14T18:00:51.660Z,83.55
2023-03-14T18:03:18.463Z,83.63
2023-03-14T18:05:45.102Z,83.65
2023-03-14T18:08:13.512Z,83.62
2023-03-14T18:10:42.166Z,83.79
2023-03-14T18:13:09.174Z,83.94
2023-03-14T18:15:35.875Z,83.92
2023-03-14T18:18:02.595Z,83.93
2023-03-14T18:20:29.298Z,83.79
2023-03-14T18:22:56.099Z,83.64
2023-03-14T18:25:22.885Z,83.61
2023-03-14T18:27:51.102Z,83.60
2023-03-14T18:30:18.412Z,83.30
2023-03-14T18:32:45.104Z,83.52
2023-03-14T18:35:11.991Z,83.34
2023-03-14T18:37:38.865Z,83.09
2023-03-14T18:40:06.612Z,83.16
2023-03-14T18:42:34.067Z,83.43
2023-03-14T18:45:02.230Z,83.28
2023-03-14T18:47:28.853Z,83.15
2023-03-14T18:49:55.535Z,82.83
2023-03-14T18:52:22.257Z,82.74
2023-03-14T18:54:48.879Z,82.26
2023-03-14T18:57:15.516Z,82.58
2023-03-14T18:59:42.248Z,82.49
2023-03-14T19:02:10.620Z,81.86
2023-03-14T19:04:37.253Z,82.19
2023-03-14T19:07:03.959Z,82.03
2023-03-14T19:09:30.534Z,82.18
2023-03-14T19:11:57.193Z,82.10
2023-03-14T19:14:23.902Z,81.66
2023-03-14T19:16:50.705Z,81.90
2023-03-14T19:19:18.788Z,81.44
2023-03-14T19:21:45.558Z,81.28
2023-03-14T19:24:17.591Z,80.65
2023-03-14T19:26:45.046Z,79.88
2023-03-14T19:29:11.770Z,80.07
2023-03-14T19:31:39.260Z,79.36
2023-03-14T19:34:06.272Z,79.37
2023-03-14T19:36:36.502Z,79.11
2023-03-14T19:39:05.451Z,78.87
2023-03-14T19:41:33.470Z,78.16
2023-03-14T19:44:00.939Z,78.31
2023-03-14T19:46:28.823Z,77.68
2023-03-14T19:48:55.913Z,77.85
2023-03-14T19:51:23.414Z,77.30
2023-03-14T19:53:52.601Z,77.45
2023-03-14T19:56:20.379Z,77.49
2023-03-14T19:58:47.665Z,77.32
2023-03-14T20:01:14.832Z,77.47
2023-03-14T20:03:42.198Z,77.41
2023-03-14T20:06:11.516Z,77.40
2023-03-14T20:08:38.992Z,77.09
2023-03-14T20:11:08.466Z,77.36
2023-03-14T20:13:36.181Z,76.35
2023-03-14T20:16:04.375Z,76.61
2023-03-14T20:18:31.726Z,76.51
2023-03-14T20:20:58.546Z,75.90
2023-03-14T20:23:25.587Z,75.77
2023-03-14T20:25:56.333Z,75.91
2023-03-14T20:28:24.837Z,75.76
2023-03-14T20:30:52.236Z,75.83
2023-03-14T20:33:18.975Z,75.15
2023-03-14T20:35:45.839Z,75.31
2023-03-14T20:38:12.548Z,75.37
2023-03-14T20:40:39.204Z,74.80
2023-03-14T20:43:05.870Z,73.59
2023-03-14T20:45:33.842Z,73.97
2023-03-14T20:48:00.547Z,73.84
2023-03-14T20:50:27.176Z,72.45
2023-03-14T20:52:53.918Z,72.35
2023-03-14T20:55:20.857Z,72.09
2023-03-14T20:57:48.597Z,72.10
2023-03-14T21:00:15.774Z,72.21
2023-03-14T21:02:43.856Z,72.29
2023-03-14T21:05:10.598Z,72.47
2023-03-14T21:07:37.493Z,72.59
2023-03-14T21:10:04.667Z,72.75
2023-03-14T21:12:31.301Z,73.10
2023-03-14T21:14:57.933Z,73.07
2023-03-14T21:17:24.517Z,73.19
2023-03-14T21:19:52.596Z,73.49
2023-03-14T21:22:19.220Z,73.05
2023-03-14T21:24:45.841Z,73.11
2023-03-14T21:27:12.527Z,73.15
2023-03-14T21:29:39.211Z,73.25
2023-03-14T21:32:06.213Z,73.76
2023-03-14T21:34:33.180Z,73.76
2023-03-14T21:37:01.323Z,74.17
2023-03-14T21:39:28.333Z,73.84
2023-03-14T21:41:55.165Z,74.05
2023-03-14T21:44:21.880Z,74.02
2023-03-14T21:46:48.813Z,73.75
2023-03-14T21:49:16.761Z,73.69
2023-03-14T21:51:44.118Z,73.73
2023-03-14T21:54:12.327Z,73.40
2023-03-14T21:56:38.923Z,73.63
2023-03-14T21:59:05.629Z,73.67
2023-03-14T22:01:32.675Z,73.59
2023-03-14T22:03:59.352Z,73.63
2023-03-14T22:06:27.973Z,73.57
2023-03-14T22:08:54.805Z,73.60
2023-03-14T22:11:23.408Z,73.32
2023-03-14T22:13:50.475Z,73.28
2023-03-14T22:16:17.156Z,73.61
2023-03-14T22:18:43.770Z,73.48
2023-03-14T22:21:10.424Z,73.51
2023-03-14T22:23:37.042Z,73.60
2023-03-14T22:26:03.935Z,73.28
2023-03-14T22:28:32.056Z,74.14
2023-03-14T22:30:59.412Z,73.84
2023-03-14T22:33:27.100Z,74.05
2023-03-14T22:35:53.779Z,73.90
2023-03-14T22:38:20.572Z,74.17
2023-03-14T22:40:47.880Z,73.80
2023-03-14T22:43:14.543Z,74.10
2023-03-14T22:45:42.872Z,74.04
2023-03-14T22:48:09.626Z,74.06
2023-03-14T22:50:38.140Z,74.10
2023-03-14T22:53:04.774Z,74.71
2023-03-14T22:55:31.405Z,74.40
2023-03-14T22:57:58.203Z,74.09
2023-03-14T23:00:24.984Z,74.23
2023-03-14T23:02:53.342Z,74.56
2023-03-14T23:05:20.457Z,74.27
2023-03-14T23:07:47.149Z,74.54
2023-03-14T23:10:13.838Z,74.26
2023-03-14T23:12:40.481Z,74.60
2023-03-14T23:15:08.291Z,74.71
2023-03-14T23:17:35.047Z,74.62
2023-03-14T23:20:03.486Z,74.55
2023-03-14T23:22:30.207Z,74.73
2023-03-14T23:24:56.790Z,74.63
2023-03-14T23:27:23.422Z,74.57
2023-03-14T23:29:49.989Z,75.04
2023-03-14T23:32:16.683Z,75.16
2023-03-14T23:34:43.622Z,74.93
2023-03-14T23:37:12.155Z,75.28
2023-03-14T23:39:38.766Z,75.35
2023-03-14T23:42:05.988Z,75.02
2023-03-14T23:44:32.806Z,75.13
2023-03-14T23:46:59.483Z,75.29
2023-03-14T23:49:26.093Z,75.33
2023-03-14T23:51:52.717Z,75.21
2023-03-14T23:54:20.789Z,74.56
2023-03-14T23:56:47.427Z,75.36
2023-03-14T23:59:14.080Z,75.06
